Time;durP1;ratioP1;P1;durP2;ratioP2;P2;SDS_P1;SDS_P2;PMS_P1;PMS_P2;Temp;Humidity;BMP_temperature;BMP_pressure;BME280_temperature;BME280_humidity;BME280_pressure;Samples;Min_cycle;Max_cycle;Signal;HPM_P1;HPM_P2
2022/12/09 00:00:05;;;;;;;25.15;13.85;;;1.30;99.90;;;;;;5088814;28;20507;-71
2022/12/09 00:02:31;;;;;;;30.20;16.02;;;1.30;99.90;;;;;;5110475;28;20502;-71
2022/12/09 00:04:57;;;;;;;26.85;14.20;;;1.30;99.90;;;;;;5089082;28;20040;-71
2022/12/09 00:07:23;;;;;;;30.60;15.63;;;1.30;99.90;;;;;;5107027;28;20454;-71
2022/12/09 00:09:48;;;;;;;34.00;14.75;;;1.30;99.90;;;;;;5108759;28;20039;-71
2022/12/09 00:12:14;;;;;;;26.85;14.07;;;1.30;99.90;;;;;;5087624;28;20699;-71
2022/12/09 00:14:40;;;;;;;28.15;13.68;;;1.30;99.90;;;;;;5104317;28;20040;-71
2022/12/09 00:17:06;;;;;;;23.05;12.30;;;1.30;99.90;;;;;;5088814;28;20052;-71
2022/12/09 00:19:33;;;;;;;26.42;13.73;;;1.40;99.90;;;;;;5105716;28;20118;-71
2022/12/09 00:21:59;;;;;;;18.27;11.20;;;1.40;99.90;;;;;;5090020;28;20047;-71
2022/12/09 00:24:24;;;;;;;22.30;11.82;;;1.50;99.90;;;;;;5094032;28;20040;-71
2022/12/09 00:26:50;;;;;;;19.02;11.07;;;1.50;99.90;;;;;;5084408;28;20044;-71
2022/12/09 00:29:16;;;;;;;20.15;11.48;;;1.50;99.90;;;;;;5076721;28;20036;-71
2022/12/09 00:31:42;;;;;;;28.13;15.05;;;1.50;99.90;;;;;;5100539;28;20043;-70
2022/12/09 00:34:11;;;;;;;28.05;14.48;;;1.50;99.90;;;;;;5110269;28;20050;-71
2022/12/09 00:36:37;;;;;;;24.38;13.93;;;1.50;99.90;;;;;;5110518;28;20043;-71
2022/12/09 00:39:03;;;;;;;29.38;13.65;;;1.50;99.90;;;;;;5089337;28;20472;-71
2022/12/09 00:41:29;;;;;;;23.95;12.95;;;1.50;99.90;;;;;;5079456;28;20121;-71
2022/12/09 00:43:56;;;;;;;23.88;13.52;;;1.50;99.90;;;;;;5104315;28;20044;-71
2022/12/09 00:46:22;;;;;;;18.02;9.80;;;1.60;99.90;;;;;;5083408;28;20065;-71
2022/12/09 00:48:48;;;;;;;14.25;8.13;;;1.50;99.90;;;;;;5108348;28;20135;-71
2022/12/09 00:51:17;;;;;;;10.68;6.60;;;1.50;99.90;;;;;;5091877;28;20043;-71
2022/12/09 00:53:43;;;;;;;17.67;9.15;;;1.60;99.90;;;;;;5109721;28;20381;-71
2022/12/09 00:56:10;;;;;;;10.35;6.10;;;1.60;99.90;;;;;;5110125;28;20047;-71
2022/12/09 00:58:36;;;;;;;11.82;6.72;;;1.60;99.90;;;;;;5091495;28;20051;-71
2022/12/09 01:01:01;;;;;;;17.90;9.07;;;1.60;99.90;;;;;;5102404;28;20036;-71
2022/12/09 01:03:27;;;;;;;22.08;9.90;;;1.70;99.90;;;;;;5089623;28;20071;-71
2022/12/09 01:05:54;;;;;;;17.30;10.20;;;1.70;99.90;;;;;;5081765;28;20462;-71
2022/12/09 01:08:20;;;;;;;21.45;11.18;;;1.70;99.90;;;;;;5101592;28;20036;-71
2022/12/09 01:10:46;;;;;;;19.83;10.52;;;1.70;99.90;;;;;;5089599;28;20040;-71
2022/12/09 01:13:14;;;;;;;18.13;10.63;;;1.60;99.90;;;;;;5089228;28;20040;-71
2022/12/09 01:15:53;;;;;;;24.25;12.50;;;1.60;99.90;;;;;;5087132;28;20407;-72
2022/12/09 01:18:41;;;;;;;18.05;11.43;;;1.60;99.90;;;;;;5077251;28;20442;-71
2022/12/09 01:21:28;;;;;;;20.92;11.93;;;1.50;99.90;;;;;;5091991;28;20139;-71
2022/12/09 01:24:25;;;;;;;23.77;12.00;;;1.50;99.90;;;;;;5061870;28;20042;-71
2022/12/09 01:26:59;;;;;;;21.40;12.02;;;1.50;99.90;;;;;;5111536;28;20122;-71
2022/12/09 01:29:25;;;;;;;19.40;11.23;;;1.40;99.90;;;;;;5113338;28;20119;-71
2022/12/09 01:31:53;;;;;;;24.25;12.90;;;1.40;99.90;;;;;;5113334;28;20236;-71
2022/12/09 01:34:19;;;;;;;22.90;11.77;;;1.30;99.90;;;;;;5094502;28;20063;-71
2022/12/09 01:36:47;;;;;;;17.55;10.75;;;1.30;99.90;;;;;;5112274;28;20479;-71
2022/12/09 01:39:13;;;;;;;19.27;10.93;;;1.30;99.90;;;;;;5093424;28;20036;-71
2022/12/09 01:41:39;;;;;;;17.67;10.70;;;1.30;99.90;;;;;;5094981;28;20032;-71
2022/12/09 01:44:39;;;;;;;22.08;12.18;;;1.20;99.90;;;;;;5099772;28;20044;-71
2022/12/09 01:47:33;;;;;;;24.52;13.10;;;1.20;99.90;;;;;;5085842;28;20430;-71
2022/12/09 01:50:26;;;;;;;22.52;11.45;;;1.20;99.90;;;;;;5089236;28;20576;-71
2022/12/09 01:53:01;;;;;;;19.30;10.60;;;1.20;99.90;;;;;;5088310;28;20051;-71
2022/12/09 01:55:55;;;;;;;19.45;10.88;;;1.20;99.90;;;;;;5087949;28;20411;-70
2022/12/09 01:58:48;;;;;;;18.92;10.30;;;1.10;99.90;;;;;;5103821;28;20039;-71
2022/12/09 02:01:38;;;;;;;20.80;10.95;;;1.10;99.90;;;;;;5091505;28;20496;-71
2022/12/09 02:04:29;;;;;;;25.52;13.52;;;1.00;99.90;;;;;;5091331;28;20039;-71
2022/12/09 02:07:26;;;;;;;29.05;13.43;;;1.00;99.90;;;;;;5109173;28;20359;-71
2022/12/09 02:10:24;;;;;;;18.33;10.40;;;0.90;99.90;;;;;;5090843;28;20402;-71
2022/12/09 02:13:57;;;;;;;20.83;11.38;;;0.90;99.90;;;;;;5090907;28;20160;-71
2022/12/09 02:17:08;;;;;;;20.92;11.57;;;0.90;99.90;;;;;;5074089;28;20043;-71
2022/12/09 02:20:15;;;;;;;25.38;11.98;;;0.80;99.90;;;;;;5074887;28;20048;-71
2022/12/09 02:23:29;;;;;;;21.83;11.70;;;0.80;99.90;;;;;;5091290;28;20039;-71
2022/12/09 02:26:43;;;;;;;23.63;11.25;;;0.80;99.90;;;;;;5108518;28;20040;-71
2022/12/09 02:29:59;;;;;;;18.77;10.38;;;0.80;99.90;;;;;;5091590;28;20047;-71
2022/12/09 02:33:01;;;;;;;19.13;10.50;;;0.70;99.90;;;;;;5090783;28;20127;-71
2022/12/09 02:36:06;;;;;;;19.70;10.90;;;0.60;99.90;;;;;;5108329;28;20051;-71
2022/12/09 02:38:58;;;;;;;20.95;11.40;;;0.60;99.90;;;;;;5071117;28;20097;-71
2022/12/09 02:41:33;;;;;;;20.42;11.20;;;0.60;99.90;;;;;;5070292;28;20048;-71
2022/12/09 02:44:20;;;;;;;19.17;10.68;;;0.60;99.90;;;;;;5088895;28;20051;-71
2022/12/09 02:46:48;;;;;;;19.08;11.50;;;0.60;99.90;;;;;;5089146;28;20062;-71
2022/12/09 02:49:15;;;;;;;14.48;8.93;;;0.60;99.90;;;;;;5088735;28;20037;-71
2022/12/09 02:51:42;;;;;;;18.45;10.90;;;0.50;99.90;;;;;;5070925;28;20105;-71
2022/12/09 02:54:13;;;;;;;20.70;11.38;;;0.50;99.90;;;;;;5066503;28;20052;-71
2022/12/09 02:56:44;;;;;;;21.58;11.77;;;0.40;99.90;;;;;;5067445;28;20396;-71
2022/12/09 02:59:10;;;;;;;17.13;10.32;;;0.40;99.90;;;;;;5067324;28;20119;-71
2022/12/09 03:01:47;;;;;;;19.38;9.98;;;0.30;99.90;;;;;;5068285;28;20509;-71
2022/12/09 03:04:21;;;;;;;16.10;9.43;;;0.30;99.90;;;;;;5068427;28;20055;-70
2022/12/09 03:06:51;;;;;;;17.83;9.57;;;0.20;99.90;;;;;;5066987;28;20076;-71
2022/12/09 03:09:32;;;;;;;16.88;9.45;;;0.20;99.90;;;;;;5066325;28;20511;-71
2022/12/09 03:12:03;;;;;;;20.00;10.05;;;0.10;99.90;;;;;;5067253;28;20040;-71
2022/12/09 03:14:37;;;;;;;22.45;10.50;;;0.10;99.90;;;;;;5068342;28;20102;-71
2022/12/09 03:17:18;;;;;;;21.20;11.18;;;0.00;99.90;;;;;;5068173;28;20048;-71
2022/12/09 03:19:56;;;;;;;25.17;11.60;;;0.00;99.90;;;;;;5066794;28;20083;-70
2022/12/09 03:22:28;;;;;;;23.55;11.65;;;-0.10;99.90;;;;;;5068041;28;20493;-71
2022/12/09 03:25:05;;;;;;;18.40;10.50;;;-0.10;99.90;;;;;;5066542;28;20536;-71
2022/12/09 03:27:45;;;;;;;23.40;11.93;;;-0.20;99.90;;;;;;5049936;28;20036;-70
2022/12/09 03:30:11;;;;;;;20.00;10.65;;;-0.20;99.90;;;;;;5066729;28;20049;-71
2022/12/09 03:32:38;;;;;;;20.77;10.95;;;-0.30;99.90;;;;;;5049880;28;20076;-71
2022/12/09 03:35:10;;;;;;;20.02;10.65;;;-0.40;99.90;;;;;;5066437;28;20048;-71
2022/12/09 03:37:38;;;;;;;21.52;10.82;;;-0.40;99.90;;;;;;5067399;28;20032;-70
2022/12/09 03:40:07;;;;;;;21.20;10.73;;;-0.40;99.90;;;;;;5068137;28;20044;-70
2022/12/09 03:42:41;;;;;;;19.35;10.75;;;-0.50;99.90;;;;;;5067563;28;20119;-70
2022/12/09 03:45:10;;;;;;;19.73;11.15;;;-0.50;99.90;;;;;;5073049;28;20035;-70
2022/12/09 03:47:37;;;;;;;21.40;10.48;;;-0.60;99.90;;;;;;5087934;28;20039;-70
2022/12/09 03:50:04;;;;;;;22.02;11.30;;;-0.60;99.90;;;;;;5086440;28;20039;-70
2022/12/09 03:52:33;;;;;;;25.17;12.18;;;-0.60;99.90;;;;;;5087320;28;20093;-70
2022/12/09 03:55:06;;;;;;;24.50;12.48;;;-0.70;99.90;;;;;;5086140;28;20113;-70
2022/12/09 03:57:36;;;;;;;25.45;11.73;;;-0.70;99.90;;;;;;5086563;28;20057;-70
2022/12/09 04:00:03;;;;;;;19.13;8.70;;;-0.70;99.90;;;;;;5087628;28;20040;-70
2022/12/09 04:02:29;;;;;;;26.55;12.23;;;-0.70;99.90;;;;;;5087765;28;20051;-70
2022/12/09 04:04:55;;;;;;;26.20;12.07;;;-0.70;99.90;;;;;;5086191;28;20044;-70
2022/12/09 04:07:21;;;;;;;26.17;11.30;;;-0.70;99.90;;;;;;5086994;28;20147;-69
2022/12/09 04:09:46;;;;;;;25.45;12.50;;;-0.70;99.90;;;;;;5087656;28;20063;-70
2022/12/09 04:12:12;;;;;;;24.00;11.20;;;-0.80;99.90;;;;;;5087527;28;20115;-70
2022/12/09 04:14:38;;;;;;;24.48;11.45;;;-0.90;99.90;;;;;;5087539;28;20062;-70
2022/12/09 04:17:04;;;;;;;20.92;10.48;;;-0.90;99.90;;;;;;5086129;28;20036;-70
2022/12/09 04:19:30;;;;;;;21.70;10.82;;;-1.00;99.90;;;;;;5085961;28;20097;-70
2022/12/09 04:21:56;;;;;;;23.70;11.77;;;-1.10;99.90;;;;;;5068795;28;20166;-70
2022/12/09 04:24:21;;;;;;;23.77;12.10;;;-1.10;99.90;;;;;;5066049;28;20041;-70
2022/12/09 04:26:48;;;;;;;27.50;12.50;;;-1.10;99.90;;;;;;5065795;28;20115;-69
2022/12/09 04:29:13;;;;;;;24.45;12.32;;;-1.20;99.90;;;;;;5066001;28;20042;-70
2022/12/09 04:31:39;;;;;;;30.58;14.88;;;-1.10;99.90;;;;;;5065492;28;20037;-69
2022/12/09 04:34:06;;;;;;;25.23;11.90;;;-1.10;99.90;;;;;;5065977;28;20111;-69
2022/12/09 04:36:32;;;;;;;29.33;13.38;;;-1.10;99.90;;;;;;5065254;28;20050;-69
2022/12/09 04:38:58;;;;;;;27.30;12.32;;;-1.10;99.90;;;;;;5065579;28;20040;-69
2022/12/09 04:41:24;;;;;;;25.45;11.77;;;-1.10;99.90;;;;;;5066006;28;20113;-69
2022/12/09 04:43:50;;;;;;;25.40;12.55;;;-1.10;99.90;;;;;;5065779;28;20427;-69
2022/12/09 04:46:17;;;;;;;26.88;12.85;;;-1.10;99.90;;;;;;5049160;28;20048;-69
2022/12/09 04:48:43;;;;;;;28.00;14.10;;;-1.10;99.90;;;;;;5065622;28;20075;-69
2022/12/09 04:51:10;;;;;;;31.52;14.30;;;-1.10;99.90;;;;;;5082122;28;20493;-69
2022/12/09 04:53:36;;;;;;;31.73;13.48;;;-1.10;99.90;;;;;;5065700;28;20479;-69
2022/12/09 04:56:05;;;;;;;32.70;14.15;;;-1.10;99.90;;;;;;5068960;28;20052;-69
2022/12/09 04:58:31;;;;;;;34.42;15.85;;;-1.00;99.90;;;;;;5069385;28;20041;-69
2022/12/09 05:00:57;;;;;;;30.83;14.45;;;-1.00;99.90;;;;;;5069382;28;20460;-70
2022/12/09 05:03:23;;;;;;;26.92;12.45;;;-1.00;99.90;;;;;;5070520;28;20028;-69
2022/12/09 05:05:49;;;;;;;30.52;12.95;;;-1.00;99.90;;;;;;5052126;28;20516;-69
2022/12/09 05:08:15;;;;;;;23.38;12.02;;;-1.00;99.90;;;;;;5070861;28;20040;-69
2022/12/09 05:10:48;;;;;;;23.85;11.27;;;-1.10;99.90;;;;;;5070589;28;20040;-69
2022/12/09 05:13:14;;;;;;;24.30;11.82;;;-1.20;99.90;;;;;;5069267;28;20047;-69
2022/12/09 05:15:40;;;;;;;26.73;12.75;;;-1.20;99.90;;;;;;5068986;28;20036;-69
2022/12/09 05:18:05;;;;;;;27.05;12.18;;;-1.30;99.90;;;;;;5070269;28;20094;-69
2022/12/09 05:20:31;;;;;;;29.48;12.73;;;-1.30;99.90;;;;;;5070094;28;20091;-69
2022/12/09 05:22:57;;;;;;;25.83;11.60;;;-1.40;99.90;;;;;;5068962;28;20028;-69
2022/12/09 05:25:23;;;;;;;24.00;11.52;;;-1.40;99.90;;;;;;5070337;28;20040;-70
2022/12/09 05:27:49;;;;;;;23.92;11.20;;;-1.50;99.90;;;;;;5070960;28;20090;-70
2022/12/09 05:30:15;;;;;;;18.77;9.23;;;-1.50;99.90;;;;;;5053548;28;20486;-69
2022/12/09 05:32:41;;;;;;;20.50;10.10;;;-1.60;99.90;;;;;;5071694;28;20097;-69
2022/12/09 05:35:07;;;;;;;19.90;10.30;;;-1.70;99.90;;;;;;5069754;28;20037;-69
2022/12/09 05:37:34;;;;;;;22.85;10.70;;;-1.70;99.90;;;;;;5071836;28;20040;-69
2022/12/09 05:40:00;;;;;;;27.30;11.68;;;-1.80;99.90;;;;;;5071729;28;20036;-69
2022/12/09 05:42:25;;;;;;;25.10;11.77;;;-1.80;99.90;;;;;;5070591;28;20071;-69
2022/12/09 05:44:51;;;;;;;27.13;12.10;;;-1.90;99.90;;;;;;5069968;28;20040;-69
2022/12/09 05:47:17;;;;;;;23.63;12.93;;;-1.80;99.90;;;;;;5068761;28;20048;-69
2022/12/09 05:49:43;;;;;;;29.08;12.57;;;-1.90;99.90;;;;;;5051415;28;20516;-69
2022/12/09 05:52:12;;;;;;;27.80;13.48;;;-1.90;99.90;;;;;;5068824;28;20086;-69
2022/12/09 05:54:39;;;;;;;28.75;10.93;;;-2.00;99.90;;;;;;5084473;28;20052;-69
2022/12/09 05:57:05;;;;;;;42.05;17.20;;;-1.90;99.90;;;;;;5089682;28;20126;-69
2022/12/09 05:59:31;;;;;;;40.80;16.13;;;-1.90;99.90;;;;;;5089845;28;20446;-69
2022/12/09 06:01:57;;;;;;;39.42;16.73;;;-1.90;99.90;;;;;;5071384;28;20040;-69
2022/12/09 06:04:22;;;;;;;37.60;15.55;;;-1.80;99.90;;;;;;5071827;28;20556;-69
2022/12/09 06:06:48;;;;;;;32.03;15.60;;;-1.80;99.90;;;;;;5088915;28;20078;-69
2022/12/09 06:09:15;;;;;;;46.70;16.75;;;-1.70;99.90;;;;;;5071552;28;20054;-69
2022/12/09 06:11:41;;;;;;;36.53;14.73;;;-1.70;99.90;;;;;;5071238;28;20043;-69
2022/12/09 06:14:09;;;;;;;38.00;16.63;;;-1.60;99.90;;;;;;5071354;28;20044;-69
2022/12/09 06:16:35;;;;;;;39.10;16.05;;;-1.60;99.90;;;;;;5088919;28;20111;-69
2022/12/09 06:19:00;;;;;;;42.45;17.55;;;-1.50;99.90;;;;;;5054887;28;20552;-69
2022/12/09 06:21:26;;;;;;;44.47;18.20;;;-1.60;99.90;;;;;;5089504;28;20484;-69
2022/12/09 06:23:53;;;;;;;35.53;15.60;;;-1.50;99.90;;;;;;5089499;28;20036;-69
2022/12/09 06:26:21;;;;;;;38.45;17.10;;;-1.50;99.90;;;;;;5089383;28;20433;-69
2022/12/09 06:28:47;;;;;;;37.97;17.48;;;-1.50;99.90;;;;;;5089248;28;20340;-69
2022/12/09 06:31:13;;;;;;;32.80;15.90;;;-1.50;99.90;;;;;;5088397;28;20433;-69
2022/12/09 06:33:40;;;;;;;39.60;16.10;;;-1.50;99.90;;;;;;5089182;28;20387;-69
2022/12/09 06:36:06;;;;;;;37.72;17.13;;;-1.60;99.90;;;;;;5071209;28;20113;-69
2022/12/09 06:38:32;;;;;;;40.17;18.25;;;-1.60;99.90;;;;;;5089160;28;20040;-69
2022/12/09 06:40:57;;;;;;;41.22;17.77;;;-1.60;99.90;;;;;;5070830;28;20043;-69
2022/12/09 06:43:23;;;;;;;48.50;18.73;;;-1.60;99.90;;;;;;5089459;28;20052;-69
2022/12/09 06:45:49;;;;;;;39.33;17.65;;;-1.50;99.90;;;;;;5070555;28;20055;-69
2022/12/09 06:48:15;;;;;;;40.90;18.30;;;-1.50;99.90;;;;;;5071032;28;20522;-69
2022/12/09 06:50:41;;;;;;;48.35;19.20;;;-1.50;99.90;;;;;;5071083;28;20728;-69
2022/12/09 06:53:07;;;;;;;49.78;18.67;;;-1.50;99.90;;;;;;5054064;28;20035;-69
2022/12/09 06:55:32;;;;;;;44.42;19.00;;;-1.50;99.90;;;;;;5070622;28;20404;-69
2022/12/09 06:57:58;;;;;;;49.88;19.50;;;-1.50;99.90;;;;;;5088634;28;20097;-69
2022/12/09 07:00:24;;;;;;;54.05;20.05;;;-1.40;99.90;;;;;;5069850;28;20048;-69
2022/12/09 07:02:52;;;;;;;60.40;22.50;;;-1.30;99.90;;;;;;5070624;28;20042;-69
2022/12/09 07:05:18;;;;;;;57.08;20.98;;;-1.20;99.90;;;;;;5088536;28;20545;-68
2022/12/09 07:07:43;;;;;;;132.43;32.55;;;-1.00;99.90;;;;;;5053635;28;20080;-68
2022/12/09 07:10:10;;;;;;;268.02;43.40;;;-0.90;99.90;;;;;;5070521;28;20079;-68
2022/12/09 07:12:35;;;;;;;318.33;43.53;;;-0.70;99.90;;;;;;5088522;28;20123;-68
2022/12/09 07:15:01;;;;;;;299.63;43.33;;;-0.50;99.90;;;;;;5087553;28;20547;-68
2022/12/09 07:17:27;;;;;;;375.85;48.65;;;-0.40;99.90;;;;;;5053486;28;20127;-69
2022/12/09 07:19:53;;;;;;;475.90;59.50;;;-0.30;99.90;;;;;;5070002;28;20119;-69
2022/12/09 07:22:19;;;;;;;513.45;68.28;;;-0.20;99.90;;;;;;5088361;28;20067;-69
2022/12/09 07:24:44;;;;;;;449.10;58.60;;;-0.20;99.90;;;;;;5070305;28;20071;-69
2022/12/09 07:27:13;;;;;;;465.92;63.50;;;-0.20;99.90;;;;;;5053448;28;20051;-69
2022/12/09 07:29:42;;;;;;;476.00;66.75;;;-0.20;99.90;;;;;;5087916;28;20105;-69
2022/12/09 07:32:09;;;;;;;420.00;55.97;;;-0.10;99.90;;;;;;5070423;28;20041;-69
2022/12/09 07:34:36;;;;;;;389.10;49.75;;;-0.10;99.90;;;;;;5070090;28;20051;-69
2022/12/09 07:37:02;;;;;;;425.98;55.72;;;-0.10;99.90;;;;;;5069751;28;20048;-69
2022/12/09 07:39:28;;;;;;;413.63;56.70;;;-0.10;99.90;;;;;;5056818;28;20032;-69
2022/12/09 07:41:55;;;;;;;395.35;51.25;;;-0.10;99.90;;;;;;5091659;28;20042;-69
2022/12/09 07:44:22;;;;;;;395.70;52.65;;;-0.10;99.90;;;;;;5091188;28;20039;-69
2022/12/09 07:46:48;;;;;;;346.15;49.15;;;-0.10;99.90;;;;;;5090074;28;20035;-69
2022/12/09 07:49:14;;;;;;;412.75;55.38;;;0.00;99.90;;;;;;5108274;28;20039;-69
2022/12/09 07:51:42;;;;;;;393.02;53.97;;;-0.10;99.90;;;;;;5108159;28;20114;-69
2022/12/09 07:54:13;;;;;;;380.60;52.40;;;-0.10;99.90;;;;;;5103712;28;20385;-68
2022/12/09 07:56:39;;;;;;;469.25;60.58;;;0.00;99.90;;;;;;5103802;28;20044;-68
2022/12/09 07:59:07;;;;;;;410.00;59.03;;;-0.10;99.90;;;;;;5087542;28;20036;-68
2022/12/09 08:01:33;;;;;;;418.63;57.35;;;0.00;99.90;;;;;;5087925;28;20416;-68
2022/12/09 08:04:00;;;;;;;464.23;61.38;;;0.00;99.90;;;;;;5086361;28;20157;-70
2022/12/09 08:06:28;;;;;;;410.63;57.78;;;0.00;99.90;;;;;;5086258;28;20040;-69
2022/12/09 08:09:03;;;;;;;315.27;50.88;;;0.00;99.90;;;;;;5087518;28;20044;-69
2022/12/09 08:11:30;;;;;;;359.17;53.72;;;0.10;99.90;;;;;;5088070;28;20047;-69
2022/12/09 08:13:57;;;;;;;243.50;43.70;;;0.10;99.90;;;;;;5069448;28;20127;-68
2022/12/09 08:16:25;;;;;;;354.50;52.47;;;0.10;99.90;;;;;;5087923;28;20046;-68
2022/12/09 08:18:53;;;;;;;324.35;52.53;;;0.10;99.90;;;;;;5086811;28;20113;-68
2022/12/09 08:21:22;;;;;;;273.55;44.88;;;0.10;99.90;;;;;;5086265;28;20123;-68
2022/12/09 08:23:49;;;;;;;310.90;48.63;;;0.10;99.90;;;;;;5086668;28;20048;-68
2022/12/09 08:26:18;;;;;;;304.35;49.15;;;0.10;99.90;;;;;;5069610;28;20507;-69
2022/12/09 08:28:44;;;;;;;405.95;61.65;;;0.10;99.90;;;;;;5087354;28;20115;-68
2022/12/09 08:31:14;;;;;;;323.58;49.65;;;0.10;99.90;;;;;;5091918;28;20118;-68
2022/12/09 08:33:40;;;;;;;285.92;48.42;;;0.10;99.90;;;;;;5074374;28;20040;-68
2022/12/09 08:36:15;;;;;;;310.10;48.20;;;0.20;99.90;;;;;;5091721;28;20040;-68
2022/12/09 08:38:42;;;;;;;302.83;51.25;;;0.20;99.90;;;;;;5076253;28;20032;-69
2022/12/09 08:41:14;;;;;;;310.38;50.65;;;0.30;99.90;;;;;;5079222;28;20049;-69
2022/12/09 08:43:41;;;;;;;284.38;45.00;;;0.30;99.90;;;;;;5081797;28;20048;-68
2022/12/09 08:46:07;;;;;;;366.20;52.97;;;0.30;99.90;;;;;;5091982;28;20043;-68
2022/12/09 08:48:36;;;;;;;312.52;48.15;;;0.30;99.90;;;;;;5090597;28;20042;-68
2022/12/09 08:51:03;;;;;;;349.88;53.10;;;0.30;99.90;;;;;;5090631;28;20551;-68
2022/12/09 08:53:29;;;;;;;289.65;46.95;;;0.40;99.90;;;;;;5098437;28;20048;-68
2022/12/09 08:55:55;;;;;;;248.90;41.08;;;0.40;99.90;;;;;;5074652;28;20626;-68
2022/12/09 08:58:20;;;;;;;217.00;39.90;;;0.40;99.90;;;;;;5092984;28;20078;-68
2022/12/09 09:00:46;;;;;;;335.05;52.42;;;0.50;99.90;;;;;;5108363;28;20076;-69
2022/12/09 09:03:12;;;;;;;243.85;42.92;;;0.40;99.90;;;;;;5108501;28;20036;-69
2022/12/09 09:05:38;;;;;;;305.23;49.28;;;0.50;99.90;;;;;;5108465;28;20084;-68
2022/12/09 09:08:04;;;;;;;226.55;38.13;;;0.50;99.90;;;;;;5108454;28;20380;-69
2022/12/09 09:10:29;;;;;;;240.13;42.95;;;0.50;99.90;;;;;;5092011;28;20039;-68
2022/12/09 09:12:55;;;;;;;159.32;33.72;;;0.50;99.90;;;;;;5074551;28;20043;-69
2022/12/09 09:15:22;;;;;;;204.90;38.75;;;0.50;99.90;;;;;;5091295;28;20492;-69
2022/12/09 09:17:50;;;;;;;158.40;35.78;;;0.50;99.90;;;;;;5074933;28;20044;-69
2022/12/09 09:20:16;;;;;;;122.07;30.30;;;0.50;99.90;;;;;;5093363;28;20044;-69
2022/12/09 09:22:42;;;;;;;194.60;40.35;;;0.50;99.90;;;;;;5093420;28;20119;-69
2022/12/09 09:25:08;;;;;;;181.05;40.05;;;0.40;99.90;;;;;;5111884;28;20040;-69
2022/12/09 09:27:34;;;;;;;180.80;36.83;;;0.50;99.90;;;;;;5093931;28;20164;-69
2022/12/09 09:30:00;;;;;;;159.52;36.97;;;0.50;99.90;;;;;;5111960;28;20476;-69
2022/12/09 09:32:25;;;;;;;116.15;30.48;;;0.60;99.90;;;;;;5082488;28;20040;-69
2022/12/09 09:34:52;;;;;;;131.32;35.28;;;0.70;99.90;;;;;;5091378;28;20040;-69
2022/12/09 09:37:18;;;;;;;86.22;29.80;;;0.90;99.90;;;;;;5073390;28;20119;-69
2022/12/09 09:39:44;;;;;;;74.40;28.58;;;0.90;99.90;;;;;;5102476;28;20128;-69
2022/12/09 09:42:17;;;;;;;196.45;39.97;;;0.90;99.90;;;;;;5110438;28;20492;-69
2022/12/09 09:44:49;;;;;;;202.00;42.33;;;0.90;99.90;;;;;;5093743;28;20069;-69
2022/12/09 09:47:24;;;;;;;242.27;48.53;;;0.90;99.90;;;;;;5093533;28;20035;-69
2022/12/09 09:50:08;;;;;;;219.40;41.28;;;0.90;99.90;;;;;;5111669;28;20044;-69
2022/12/09 09:52:37;;;;;;;165.88;38.53;;;0.90;99.90;;;;;;5076522;28;20050;-69
2022/12/09 09:55:30;;;;;;;72.28;28.38;;;1.00;99.90;;;;;;5111076;28;20056;-69
2022/12/09 09:58:16;;;;;;;152.23;35.92;;;1.10;99.90;;;;;;5008516;28;20054;-69
2022/12/09 10:00:54;;;;;;;126.10;34.80;;;1.20;99.90;;;;;;4992410;28;20255;-69
2022/12/09 10:03:41;;;;;;;227.70;48.35;;;1.30;99.90;;;;;;4992222;28;20074;-69
2022/12/09 10:06:42;;;;;;;129.10;39.85;;;1.40;99.90;;;;;;5008427;28;20053;-69
2022/12/09 10:09:16;;;;;;;94.72;31.70;;;1.60;99.90;;;;;;5005144;28;20445;-69
2022/12/09 10:11:56;;;;;;;60.53;27.05;;;1.60;99.90;;;;;;4991921;28;20484;-69
2022/12/09 10:14:58;;;;;;;50.10;23.55;;;1.80;99.90;;;;;;5008466;28;20046;-70
2022/12/09 10:17:34;;;;;;;47.25;22.77;;;2.10;99.90;;;;;;4992227;28;20693;-70
2022/12/09 10:20:10;;;;;;;38.45;20.38;;;2.60;99.90;;;;;;4991794;28;20128;-70
2022/12/09 10:22:54;;;;;;;36.80;22.13;;;3.10;99.90;;;;;;4975772;28;20466;-70
2022/12/09 10:25:31;;;;;;;35.20;19.38;;;3.70;99.90;;;;;;5008278;28;20116;-70
2022/12/09 10:28:17;;;;;;;33.58;18.00;;;4.50;99.90;;;;;;5008077;28;20681;-71
2022/12/09 10:30:42;;;;;;;31.70;17.27;;;5.00;99.90;;;;;;4992069;28;20610;-71
2022/12/09 10:33:12;;;;;;;30.08;18.52;;;5.30;99.90;;;;;;5008034;28;20045;-70
2022/12/09 10:35:38;;;;;;;31.95;19.30;;;5.50;99.90;;;;;;5056693;28;20044;-71
2022/12/09 10:38:10;;;;;;;30.63;18.70;;;5.10;99.90;;;;;;5090205;28;20064;-70
2022/12/09 10:40:46;;;;;;;35.60;19.80;;;4.60;99.90;;;;;;5072467;28;20050;-70
2022/12/09 10:43:34;;;;;;;29.00;17.38;;;4.20;99.90;;;;;;5090550;28;20080;-70
2022/12/09 10:46:10;;;;;;;31.13;18.70;;;4.20;99.90;;;;;;5072577;28;20656;-70
2022/12/09 10:48:48;;;;;;;31.73;18.85;;;4.40;99.90;;;;;;5072518;28;20428;-70
2022/12/09 10:51:25;;;;;;;29.45;18.15;;;4.70;99.90;;;;;;5090309;28;20124;-71
2022/12/09 10:54:10;;;;;;;28.98;17.42;;;5.10;99.90;;;;;;5089225;28;20052;-70
2022/12/09 10:57:00;;;;;;;28.58;18.52;;;5.80;99.90;;;;;;5090291;28;20052;-70
2022/12/09 10:59:28;;;;;;;28.88;18.35;;;6.20;99.90;;;;;;5071599;28;20047;-70
2022/12/09 11:01:58;;;;;;;28.42;18.23;;;6.10;99.90;;;;;;5088939;28;20384;-70
2022/12/09 11:04:32;;;;;;;27.67;17.00;;;6.00;99.90;;;;;;5071771;28;20036;-70
2022/12/09 11:07:12;;;;;;;28.77;18.23;;;6.10;99.90;;;;;;5071234;28;20136;-70
2022/12/09 11:10:04;;;;;;;27.67;17.55;;;6.30;99.90;;;;;;5071275;28;20047;-70
2022/12/09 11:12:35;;;;;;;29.35;17.95;;;6.70;99.90;;;;;;5065938;28;20388;-70
2022/12/09 11:15:20;;;;;;;32.08;18.70;;;6.20;99.90;;;;;;5088918;28;20741;-70
2022/12/09 11:18:15;;;;;;;31.55;18.50;;;5.60;99.90;;;;;;5089756;28;20040;-70
2022/12/09 11:20:57;;;;;;;30.50;17.55;;;4.90;99.90;;;;;;5077832;28;20044;-70
2022/12/09 11:23:24;;;;;;;35.80;18.27;;;4.10;99.90;;;;;;5088743;28;20054;-70
2022/12/09 11:25:55;;;;;;;45.35;22.90;;;3.50;99.90;;;;;;5061583;28;20623;-70
2022/12/09 11:28:36;;;;;;;39.22;21.58;;;3.10;99.90;;;;;;5087584;28;20040;-70
2022/12/09 11:31:22;;;;;;;39.47;21.20;;;2.90;99.90;;;;;;5109234;28;20050;-70
2022/12/09 11:33:55;;;;;;;37.70;21.60;;;2.70;99.90;;;;;;5089666;28;20096;-70
2022/12/09 11:36:28;;;;;;;41.38;22.27;;;2.70;99.90;;;;;;5080323;28;20040;-70
2022/12/09 11:39:40;;;;;;;39.33;21.00;;;2.70;99.90;;;;;;5084806;28;20083;-70
2022/12/09 11:42:21;;;;;;;39.33;20.08;;;2.80;99.90;;;;;;5062369;28;20511;-70
2022/12/09 11:44:50;;;;;;;40.20;22.38;;;3.00;99.90;;;;;;5091317;28;20032;-71
2022/12/09 11:47:30;;;;;;;41.35;22.27;;;3.40;99.90;;;;;;5110196;28;20040;-70
2022/12/09 11:50:16;;;;;;;38.42;21.20;;;3.90;99.90;;;;;;5088827;28;20070;-71
2022/12/09 11:52:43;;;;;;;37.63;20.95;;;4.40;99.90;;;;;;5065492;28;20048;-70
2022/12/09 11:55:18;;;;;;;38.95;21.48;;;4.70;99.90;;;;;;5088972;28;20059;-70
2022/12/09 11:57:49;;;;;;;37.47;22.02;;;4.70;99.90;;;;;;5088427;28;20040;-70
2022/12/09 12:00:24;;;;;;;34.45;20.70;;;4.80;99.90;;;;;;5089059;28;20486;-70
2022/12/09 12:02:54;;;;;;;39.60;22.58;;;4.90;99.90;;;;;;5090080;28;20492;-70
2022/12/09 12:05:34;;;;;;;38.42;21.80;;;4.90;99.90;;;;;;5087598;28;20039;-70
2022/12/09 12:08:14;;;;;;;31.42;19.35;;;4.90;99.90;;;;;;5110590;28;20043;-71
2022/12/09 12:10:43;;;;;;;;;;;4.90;99.90;;;;;;5104022;28;20454;-70
2022/12/09 12:13:18;;;;;;;34.55;20.25;;;4.80;99.90;;;;;;5088806;28;19916;-70
2022/12/09 12:15:47;;;;;;;36.97;21.00;;;4.60;99.90;;;;;;5089975;28;20076;-70
2022/12/09 12:18:19;;;;;;;37.25;19.73;;;4.30;99.90;;;;;;5090171;28;20071;-70
2022/12/09 12:21:11;;;;;;;34.58;20.23;;;4.10;99.90;;;;;;5089633;28;20079;-70
2022/12/09 12:23:42;;;;;;;35.08;18.50;;;3.90;99.90;;;;;;5087908;28;20073;-70
2022/12/09 12:26:20;;;;;;;30.80;17.85;;;3.70;99.90;;;;;;5096923;28;20072;-71
2022/12/09 12:28:56;;;;;;;36.42;20.42;;;3.40;99.90;;;;;;5088846;28;20051;-70
2022/12/09 12:31:42;;;;;;;36.25;20.52;;;3.20;99.90;;;;;;5081242;28;20130;-70
2022/12/09 12:34:30;;;;;;;37.78;19.42;;;3.00;99.90;;;;;;5070513;28;20400;-69
2022/12/09 12:37:35;;;;;;;41.80;22.02;;;2.80;99.90;;;;;;5080518;28;20055;-69
2022/12/09 12:40:25;;;;;;;40.65;20.90;;;2.60;99.90;;;;;;5109384;28;20044;-70
2022/12/09 12:46:17;;;;;;;39.13;21.48;;;2.40;99.90;;;;;;5102408;28;20492;-70
2022/12/09 12:49:08;;;;;;;47.35;23.73;;;2.40;99.90;;;;;;5055331;28;20088;-70
2022/12/09 12:51:43;;;;;;;;;;;2.40;99.90;;;;;;5109439;28;20047;-69
2022/12/09 12:55:06;;;;;;;42.65;21.52;;;2.40;99.90;;;;;;5067094;28;19927;-71
2022/12/09 12:57:56;;;;;;;46.25;24.17;;;2.50;99.90;;;;;;5025996;28;20124;-70
2022/12/09 13:00:25;;;;;;;51.35;24.20;;;2.50;99.90;;;;;;5009511;28;20049;-71
2022/12/09 13:03:24;;;;;;;33.03;16.98;;;2.50;99.90;;;;;;4992539;28;20156;-71